Seattle, Washington
Traffic Map
Current Weather Conditions
Seattle, Washington
Overcast Haze
Overcast
62°
Feels Like: 62°
Wind Chill: 62° Ceiling: 1000
Heat Index: 62° Visibility: 6mi
Dew Point: 56° Wind: 7mph
Humidity: 80% Direction: 240° (WSW)
Pressure: 30.08in Gusts: 0mph
Raw Report DataKBFI 161753Z 24006KT 6SM HZ OVC010 17/13 A3008 RMK AO2 SLP186 T01670133 10167 20150 51004
Traffic Incident Summary
Active as of:
Severity:
Category:
InformationThere was an issue retrieving the traffic information for this location. Please try a different location or try again shortly.
Advertisements